• Join FlightAware (Why Join?)
  • Login
  • US Flag 
02:36PM EDT


 

Airport Tracker/Info


-or-


 

Live Flight TrackerFlight Track Log ✈ EJA388 ✈ 27-Sep-2013 ✈ KCMA - KMSN

Flight Track Log - Related Links

Times and Time Zones

All times are in EDT time to prevent confusion due to time zone crossing. See the EJA388 flight status page for this flight to view local times or setup timezone preferences in your user account.

Time Position Orientation Groundspeed Altitude Reporting Facility
EDT Latitude Longitude Course Direction KTS MPH feet Rate Location/Type
03:51PM 34.2122 -119.1106 262° West 148 170 1,000  Level Los Angeles Center
03:51PM 34.2072 -119.1564 262° West 215 247 2,900 3,120 Climbing Los Angeles Center
03:53PM 34.1975 -119.2642 264° West 292 336 7,500 2,220 Climbing Los Angeles Center
04:00PM 34.1780 -119.1930 97° East 100 115 21,500 1,860 Climbing FlightAware
04:00PM 34.2330 -119.1240 46° Northeast 100 115 21,600 60 Climbing FlightAware
04:01PM 34.2400 -119.1110 57° Northeast 100 115 21,600  Level FlightAware
04:02PM 34.2510 -119.0940 52° Northeast 100 115 21,600  Level FlightAware
04:02PM 34.2590 -119.0810 53° Northeast 100 115 21,600  Level FlightAware
04:03PM 34.2680 -119.0660 54° Northeast 100 115 21,600 5,760 Level FlightAware
04:03PM 34.3900 -118.6540 70° East 100 115 27,400 5,100 Climbing FlightAware
04:04PM 34.4200 -118.5540 70° East 475 547 27,700 180 Climbing FlightAware
04:05PM 34.4420 -118.4810 70° East 475 547 27,700  Level FlightAware
04:05PM 34.4660 -118.4010 70° East 475 547 27,700  Level FlightAware
04:06PM 34.4900 -118.3220 70° East 475 547 27,700  Level FlightAware
04:06PM 34.5130 -118.2450 70° East 475 547 27,700  Level FlightAware
04:07PM 34.5350 -118.1710 70° East 475 547 27,700 3,660 Level FlightAware
04:08PM 34.5930 -117.9390 73° East 475 547 33,000 3,480 Climbing FlightAware
04:08PM 34.6170 -117.8550 71° East 475 547 33,000  Level FlightAware
04:09PM 34.6550 -117.7140 72° East 475 547 33,000  Level FlightAware
04:10PM 34.6770 -117.6370 71° East 475 547 33,000  Level FlightAware
04:11PM 34.7000 -117.5570 71° East 475 547 33,000  Level FlightAware
04:11PM 34.7210 -117.4800 72° East 475 547 33,000  Level FlightAware
04:12PM 34.7440 -117.4010 70° East 475 547 33,000  Level FlightAware
04:12PM 34.7660 -117.3230 71° East 475 547 33,000  Level FlightAware
04:13PM 34.7880 -117.2460 71° East 475 547 33,000  Level FlightAware
04:14PM 34.8160 -117.1470 71° East 475 547 33,000  Level FlightAware
04:14PM 34.8380 -117.0690 71° East 475 547 33,000  Level FlightAware
04:15PM 34.8610 -116.9880 71° East 475 547 33,000  Level FlightAware
04:16PM 34.8830 -116.9100 71° East 475 547 33,000  Level FlightAware
04:16PM 34.9040 -116.8330 72° East 475 547 33,000  Level FlightAware
04:17PM 34.9260 -116.7550 71° East 475 547 33,000  Level FlightAware
04:17PM 34.9480 -116.6770 71° East 475 547 33,000  Level FlightAware
04:18PM 34.9700 -116.6000 71° East 475 547 33,000  Level FlightAware
04:19PM 34.9930 -116.5180 71° East 475 547 33,000 5,820 Level FlightAware
04:19PM 35.3500 -116.2675 71° East 460 529 41,000 4,500 Climbing Salt Lake Center
04:20PM 35.4350 -116.1419 50° Northeast 472 543 41,000  Level Salt Lake Center
04:21PM 35.5189 -116.0133 51° Northeast 480 552 41,000  Level Salt Lake Center
04:22PM 35.6019 -115.8875 51° Northeast 478 550 41,000  Level Salt Lake Center
04:23PM 35.7017 -115.7369 51° Northeast 475 547 41,000  Level Salt Lake Center
04:25PM 35.7847 -115.6108 51° Northeast 476 548 41,000  Level Salt Lake Center
04:26PM 35.8675 -115.4839 51° Northeast 478 550 41,000  Level Salt Lake Center
04:27PM 35.9506 -115.3578 51° Northeast 479 551 41,000  Level Salt Lake Center
04:28PM 36.0336 -115.2303 51° Northeast 480 552 41,000  Level Salt Lake Center
04:29PM 36.1392 -115.0856 48° Northeast 477 549 41,000  Level Salt Lake Center
04:30PM 36.2303 -114.9706 45° Northeast 474 545 41,000  Level Salt Lake Center
04:31PM 36.3208 -114.8533 46° Northeast 474 545 41,000  Level Salt Lake Center
04:32PM 36.4122 -114.7375 46° Northeast 473 544 41,000  Level Salt Lake Center
04:33PM 36.5019 -114.6200 46° Northeast 471 542 41,000  Level Salt Lake Center
04:34PM 36.5908 -114.5014 47° Northeast 471 542 41,000  Level Salt Lake Center
04:35PM 36.7000 -114.3589 46° Northeast 474 545 41,000  Level Salt Lake Center
04:36PM 36.7856 -114.2311 50° Northeast 480 552 41,000  Level Salt Lake Center
04:37PM 36.8481 -114.0975 60° Northeast 488 562 41,000  Level Salt Lake Center
04:38PM 36.9203 -113.9511 58° Northeast 495 570 41,000  Level Salt Lake Center
04:39PM 37.0039 -113.7739 59° Northeast 495 570 41,000  Level Salt Lake Center
04:40PM 37.0733 -113.6247 60° Northeast 497 572 41,000  Level Salt Lake Center
04:41PM 37.1442 -113.4756 59° Northeast 499 574 41,000  Level Salt Lake Center
04:42PM 37.2161 -113.3261 59° Northeast 503 579 41,000  Level Salt Lake Center
04:43PM 37.2861 -113.1733 60° Northeast 505 581 41,000  Level Salt Lake Center
04:44PM 37.3564 -113.0217 60° Northeast 507 583 41,000  Level Salt Lake Center
04:45PM 37.4406 -112.8392 60° Northeast 510 587 41,000  Level Salt Lake Center
04:46PM 37.5111 -112.6894 59° Northeast 512 589 41,000 60 Level Salt Lake Center
04:47PM 37.5819 -112.5372 60° Northeast 512 589 41,200 360 Climbing Salt Lake Center
04:48PM 37.6236 -112.4458 60° Northeast 509 586 41,600 540 Climbing Los Angeles Center
04:48PM 37.6511 -112.3858 60° Northeast 506 582 41,800 540 Climbing Salt Lake Center
04:49PM 37.7408 -112.2142 57° Northeast 493 567 42,500 540 Climbing Salt Lake Center
04:50PM 37.8194 -112.0797 53° Northeast 480 552 43,000 300 Climbing Salt Lake Center
04:51PM 37.8969 -111.9442 54° Northeast 478 550 43,200 300 Climbing Salt Lake Center
04:52PM 37.9736 -111.8081 54° Northeast 477 549 43,700 480 Climbing Salt Lake Center
04:53PM 38.0508 -111.6753 54° Northeast 471 542 44,200 480 Climbing Salt Lake Center
04:54PM 38.1272 -111.5433 54° Northeast 467 537 44,700 360 Climbing Salt Lake Center
04:55PM 38.2147 -111.3872 54° Northeast 455 524 45,000 120 Climbing Salt Lake Center
04:56PM 38.2892 -111.2564 54° Northeast 457 526 45,000  Level Salt Lake Center
04:58PM 38.3647 -111.1233 54° Northeast 463 533 45,000  Level Salt Lake Center
04:59PM 38.4392 -110.9872 55° Northeast 468 539 45,000  Level Salt Lake Center
05:00PM 38.5256 -110.8322 55° Northeast 476 548 45,000  Level Salt Lake Center
05:01PM 38.5994 -110.7008 54° Northeast 476 548 45,000  Level Salt Lake Center
05:02PM 38.6833 -110.5439 56° Northeast 478 550 45,000  Level Denver Center
05:03PM 38.7569 -110.4111 55° Northeast 478 550 45,000  Level Denver Center
05:04PM 38.8408 -110.2508 56° Northeast 483 556 45,000  Level Denver Center
05:05PM 38.9181 -110.1186 53° Northeast 484 557 45,000  Level Salt Lake Center
05:06PM 38.9914 -109.9819 55° Northeast 484 557 45,000  Level Salt Lake Center
05:07PM 39.0772 -109.8236 55° Northeast 483 556 45,000  Level Salt Lake Center
05:08PM 39.1508 -109.6861 55° Northeast 486 559 45,000  Level Salt Lake Center
05:09PM 39.2364 -109.5247 56° Northeast 488 562 45,000  Level Salt Lake Center
05:10PM 39.3097 -109.3875 55° Northeast 487 560 45,000  Level Salt Lake Center
05:11PM 39.3953 -109.2253 56° Northeast 489 563 45,000  Level Salt Lake Center
05:12PM 39.4681 -109.0864 56° Northeast 488 562 45,000  Level Salt Lake Center
05:13PM 39.5522 -108.9244 56° Northeast 486 559 45,000  Level Salt Lake Center
05:14PM 39.6289 -108.7817 55° Northeast 488 562 45,000  Level Salt Lake Center
05:15PM 39.7078 -108.6292 56° Northeast 498 573 45,000  Level Salt Lake Center
05:16PM 39.7914 -108.4656 56° Northeast 485 558 45,000  Level Denver Center
05:17PM 39.8756 -108.3022 56° Northeast 487 560 45,000  Level Denver Center
05:18PM 39.9464 -108.1619 57° Northeast 483 556 45,000  Level Denver Center
05:19PM 40.0183 -108.0208 56° Northeast 486 559 45,000  Level Denver Center
05:20PM 40.0856 -107.8433 64° Northeast 490 564 45,000  Level Denver Center
05:21PM 40.1231 -107.6833 73° East 484 557 45,000  Level Denver Center
05:22PM 40.1669 -107.4961 73° East 482 555 45,000  Level Denver Center
05:23PM 40.2025 -107.3353 74° East 482 555 45,000  Level Denver Center
05:24PM 40.2453 -107.1472 73° East 483 556 45,000  Level Denver Center
05:26PM 40.2819 -106.9861 73° East 483 556 45,000  Level Denver Center
05:27PM 40.3211 -106.8125 73° East 481 554 45,000  Level Denver Center
05:28PM 40.3583 -106.6433 74° East 480 552 45,000  Level Denver Center
05:29PM 40.4008 -106.4472 74° East 483 556 45,000  Level Denver Center
05:30PM 40.4364 -106.2861 74° East 482 555 45,000  Level Denver Center
05:31PM 40.4739 -106.1158 74° East 483 556 45,000  Level Denver Center
05:32PM 40.5108 -105.9450 74° East 487 560 45,000  Level Denver Center
05:33PM 40.5453 -105.7714 75° East 489 563 45,000  Level Denver Center
05:34PM 40.5897 -105.5631 74° East 493 567 45,000  Level Denver Center
05:35PM 40.6258 -105.3872 75° East 495 570 45,000  Level Denver Center
05:36PM 40.6628 -105.2117 74° East 497 572 45,000  Level Denver Center
05:37PM 40.6992 -105.0350 75° East 498 573 45,000  Level Denver Center
05:38PM 40.7353 -104.8578 75° East 500 575 45,000  Level Denver Center
05:39PM 40.7697 -104.6808 76° East 497 572 45,000  Level Denver Center
05:40PM 40.8133 -104.4656 75° East 505 581 45,000  Level Denver Center
05:41PM 40.8481 -104.2875 75° East 502 578 45,000  Level Denver Center
05:42PM 40.8828 -104.1089 76° East 503 579 45,000  Level Denver Center
05:43PM 40.9178 -103.9308 75° East 500 575 45,000  Level Denver Center
05:44PM 40.9522 -103.7533 76° East 500 575 45,000  Level Denver Center
05:45PM 40.9908 -103.5419 76° East 505 581 45,000  Level Denver Center
05:46PM 41.0242 -103.3689 76° East 507 583 45,000  Level Denver Center
05:47PM 41.0564 -103.1944 76° East 510 587 45,000  Level Denver Center
05:48PM 41.0931 -102.9892 77° East 512 589 45,000  Level Denver Center
05:49PM 41.1092 -102.8161 83° East 503 579 45,000  Level Denver Center
05:50PM 41.1256 -102.6117 84° East 501 577 45,000  Level Denver Center
05:51PM 41.1394 -102.4356 84° East 500 575 45,000  Level Denver Center
05:52PM 41.1558 -102.2311 84° East 499 574 45,000  Level Denver Center
05:53PM 41.1692 -102.0567 84° East 497 572 45,000  Level Denver Center
05:54PM 41.1839 -101.8544 84° East 493 567 45,000  Level Denver Center
05:56PM 41.1953 -101.6831 85° East 489 563 45,000  Level Denver Center
05:57PM 41.2086 -101.4850 85° East 483 556 45,000  Level Denver Center
05:58PM 41.2197 -101.3144 85° East 483 556 45,000  Level Denver Center
05:59PM 41.2319 -101.1125 85° East 489 563 45,000  Level Denver Center
06:00PM 41.2439 -100.9408 85° East 487 560 45,000  Level Denver Center
06:01PM 41.2561 -100.7383 85° East 488 562 45,000  Level Denver Center
06:02PM 41.2667 -100.5642 85° East 490 564 45,000  Level Denver Center
06:03PM 41.2775 -100.3928 85° East 486 559 45,000  Level Denver Center
06:04PM 41.2886 -100.1908 86° East 487 560 45,000  Level Denver Center
06:05PM 41.2978 -100.0197 86° East 485 558 45,000  Level Denver Center
06:06PM 41.3086 -99.8206 86° East 484 557 45,000  Level Denver Center
06:07PM 41.3181 -99.6492 86° East 483 556 45,000  Level Denver Center
06:08PM 41.3200 -99.4517 89° East 479 551 45,000  Level Denver Center
06:09PM 41.3078 -99.2936 96° East 477 549 45,000  Level Denver Center
06:10PM 41.2958 -99.1203 95° East 472 543 45,000  Level Denver Center
06:11PM 41.2881 -98.9236 93° East 474 545 45,000  Level Denver Center
06:12PM 41.2794 -98.7297 93° East 473 544 45,000  Level Denver Center
06:13PM 41.2697 -98.5514 94° East 473 544 45,000  Level Denver Center
06:14PM 41.2594 -98.3792 94° East 467 537 45,000  Level Denver Center
06:16PM 41.2775 -98.1386 84° East 472 543 45,000  Level Minneapolis Center
06:17PM 41.3097 -97.9669 76° East 477 549 45,000  Level Minneapolis Center
06:18PM 41.3381 -97.8119 76° East 477 549 45,000  Level Minneapolis Center
06:19PM 41.3756 -97.6050 76° East 478 550 45,000  Level Minneapolis Center
06:20PM 41.4075 -97.4322 76° East 479 551 45,000  Level Minneapolis Center
06:21PM 41.4381 -97.2589 77° East 480 552 45,000  Level Minneapolis Center
06:22PM 41.4683 -97.0844 77° East 482 555 45,000  Level Minneapolis Center
06:23PM 41.4997 -96.9117 76° East 480 552 45,000  Level Minneapolis Center
06:24PM 41.5308 -96.7378 77° East 481 554 45,000  Level Minneapolis Center
06:25PM 41.5603 -96.5633 77° East 479 551 45,000  Level Minneapolis Center
06:26PM 41.5964 -96.3481 77° East 481 554 45,000  Level Minneapolis Center
06:27PM 41.6194 -96.1983 78° East 484 557 45,000  Level Minneapolis Center
06:28PM 41.6550 -95.9972 77° East 481 554 45,000  Level Minneapolis Center
06:29PM 41.6839 -95.8211 78° East 481 554 45,000  Level Minneapolis Center
06:30PM 41.7128 -95.6444 78° East 482 555 45,000  Level Minneapolis Center
06:31PM 41.7406 -95.4681 78° East 483 556 45,000  Level Minneapolis Center
06:32PM 41.7689 -95.2931 78° East 481 554 45,000  Level Minneapolis Center
06:33PM 41.7969 -95.1178 78° East 480 552 45,000  Level Minneapolis Center
06:34PM 41.8297 -94.9086 78° East 478 550 45,000  Level Minneapolis Center
06:35PM 41.8558 -94.7325 79° East 480 552 45,000  Level Minneapolis Center
06:36PM 41.8833 -94.5564 78° East 482 555 45,000  Level Minneapolis Center
06:37PM 41.9106 -94.3800 78° East 483 556 45,000  Level Minneapolis Center
06:38PM 41.9375 -94.2044 78° East 482 555 45,000  Level Minneapolis Center
06:39PM 41.9653 -94.0292 78° East 481 554 45,000  Level Minneapolis Center
06:40PM 41.9925 -93.8272 80° East 482 555 45,000  Level Minneapolis Center
06:41PM 42.0186 -93.6544 78° East 479 551 45,000  Level Minneapolis Center
06:42PM 42.0428 -93.4792 79° East 480 552 45,000  Level Minneapolis Center
06:43PM 42.0675 -93.3058 79° East 479 551 45,000  Level Minneapolis Center
06:45PM 42.0967 -93.0975 79° East 477 549 45,000 -540 Level Minneapolis Center
06:46PM 42.1203 -92.9228 80° East 481 554 44,000 -1,020 Descending Minneapolis Center
06:47PM 42.1442 -92.7486 79° East 479 551 42,900 -1,140 Descending Minneapolis Center
06:47PM 42.1631 -92.6078 80° East 480 552 42,100 -1,140 Descending Chicago Center
06:48PM 42.1858 -92.4303 80° East 486 559 41,000 -1,080 Descending Chicago Center
06:49PM 42.2097 -92.2536 80° East 485 558 39,900 -1,080 Descending Chicago Center
06:50PM 42.2328 -92.0728 80° East 494 568 38,800 -1,200 Descending Chicago Center
06:51PM 42.2611 -91.8514 80° East 505 581 37,500 -900 Descending Chicago Center
06:52PM 42.2847 -91.6678 80° East 507 583 37,000 -240 Descending Chicago Center
06:54PM 42.3072 -91.4869 80° East 500 575 37,000 -300 Level Chicago Center
06:55PM 42.3292 -91.3072 81° East 495 570 36,500 -720 Descending Chicago Center
06:56PM 42.3550 -91.0956 81° East 483 556 35,600 -840 Descending Chicago Center
06:57PM 42.3772 -90.9114 81° East 496 571 34,800 -1,260 Descending Chicago Center
06:58PM 42.4022 -90.7292 79° East 501 577 33,100 -2,280 Descending Chicago Center
06:59PM 42.4853 -90.5592 56° Northeast 460 529 30,100 -2,700 Descending Chicago Center
07:00PM 42.5861 -90.4539 38° Northeast 464 534 27,500 -2,220 Descending Chicago Center
07:01PM 42.6869 -90.3583 35° Northeast 453 521 25,600 -1,620 Descending Chicago Center
07:02PM 42.7872 -90.2653 34° Northeast 445 512 24,200 -1,800 Descending Chicago Center
07:03PM 42.8864 -90.1236 46° Northeast 443 510 21,900 -2,340 Descending Chicago Center
07:04PM 42.9308 -89.9814 67° East 419 482 19,400 -2,460 Descending Chicago Center
07:05PM 42.9825 -89.8297 65° Northeast 409 471 16,800 -2,880 Descending Chicago Center
07:06PM 43.0411 -89.7139 55° Northeast 387 445 13,500 -3,420 Descending Chicago Center
07:07PM 43.1078 -89.6233 45° Northeast 348 400 9,800 -3,120 Descending Chicago Center
07:08PM 43.1786 -89.5789 25° Northeast 306 352 7,100 -2,460 Descending Chicago Center
07:09PM 43.2228 -89.5086 49° Northeast 272 313 4,800 -2,100 Descending Chicago Center
07:10PM 43.2092 -89.4311 104° East 230 265 2,800 -1,560 Descending Chicago Center
07:11PM 43.1756 -89.3786 131° Southeast 178 205 1,600 -840 Descending Chicago Center
07:12PM 43.1544 -89.3511 136° Southeast 138 159 1,100 -540 Descending Chicago Center
07:14PM 43.1333 -89.3333 North  Level FlightAware Approximate